createdAt,value
2019-03-16T00:01:21.442Z,96244.98
2019-03-16T00:03:51.591Z,96266.95
2019-03-16T00:06:21.784Z,96263.56
2019-03-16T00:08:51.926Z,96251.75
2019-03-16T00:11:22.106Z,96249.19
2019-03-16T00:13:52.338Z,96263.98
2019-03-16T00:16:22.564Z,96261.88
2019-03-16T00:18:53.629Z,96255.96
2019-03-16T00:21:24.244Z,96261.88
2019-03-16T00:23:54.463Z,96242.47
2019-03-16T00:26:25.560Z,96247.52
2019-03-16T00:28:55.849Z,96259.34
2019-03-16T00:31:26.002Z,96262.73
2019-03-16T00:33:56.983Z,96256.40
2019-03-16T00:36:27.180Z,96253.45
2019-03-16T00:38:57.338Z,96256.81
2019-03-16T00:41:28.388Z,96260.20
2019-03-16T00:43:58.556Z,96264.41
2019-03-16T00:46:29.699Z,96270.34
2019-03-16T00:48:59.856Z,96261.03
2019-03-16T00:51:30.869Z,96266.10
2019-03-16T00:54:01.036Z,96283.40
2019-03-16T00:56:31.323Z,96266.08
2019-03-16T00:59:02.250Z,96273.70
2019-03-16T01:01:55.389Z,96279.59
2019-03-16T01:04:51.132Z,96276.23
2019-03-16T01:07:49.010Z,96272.02
2019-03-16T01:10:45.428Z,96263.98
2019-03-16T01:13:41.079Z,96294.79
2019-03-16T01:16:37.834Z,96266.11
2019-03-16T01:19:34.590Z,96255.97
2019-03-16T01:22:30.687Z,96257.64
2019-03-16T01:25:26.045Z,96266.52
2019-03-16T01:28:23.506Z,96262.71
2019-03-16T01:31:18.870Z,96257.66
2019-03-16T01:34:16.442Z,96263.54
2019-03-16T01:37:13.016Z,96271.58
2019-03-16T01:40:08.552Z,96271.14
2019-03-16T01:43:06.288Z,96278.75
2019-03-16T01:46:02.063Z,96284.64
2019-03-16T01:48:58.218Z,96289.70
2019-03-16T01:51:54.750Z,96288.84
2019-03-16T01:54:51.052Z,96290.97
2019-03-16T01:57:47.006Z,96296.03
2019-03-16T02:00:43.781Z,96312.91
2019-03-16T02:03:39.320Z,96296.04
2019-03-16T02:06:35.916Z,96298.98
2019-03-16T02:09:33.426Z,96311.23
2019-03-16T02:12:28.849Z,96304.05
2019-03-16T02:15:25.812Z,96298.13
2019-03-16T02:18:21.485Z,96314.18
2019-03-16T02:21:17.333Z,96310.80
2019-03-16T02:24:13.072Z,96310.76
2019-03-16T02:27:09.635Z,96318.36
2019-03-16T02:30:06.326Z,96323.42
2019-03-16T02:33:12.767Z,96311.58
2019-03-16T02:36:00.700Z,96304.84
2019-03-16T02:38:57.254Z,96304.84
2019-03-16T02:41:53.773Z,96304.84
2019-03-16T02:44:49.387Z,96295.53
2019-03-16T02:47:45.951Z,96301.86
2019-03-16T02:50:43.791Z,96294.71
2019-03-16T02:53:40.379Z,96305.66
2019-03-16T02:56:37.131Z,96323.83
2019-03-16T02:59:34.869Z,96308.19
2019-03-16T03:02:31.444Z,96319.99
2019-03-16T03:05:26.842Z,96329.27
2019-03-16T03:11:14.029Z,96333.06
2019-03-16T03:14:10.488Z,96338.57
2019-03-16T03:17:05.921Z,96332.66
2019-03-16T03:20:03.405Z,96335.59
2019-03-16T03:22:59.976Z,96340.66
2019-03-16T03:25:55.490Z,96349.06
2019-03-16T03:28:51.147Z,96339.34
2019-03-16T03:31:46.961Z,96346.08
2019-03-16T03:34:44.504Z,96357.05
2019-03-16T03:37:43.085Z,96350.69
2019-03-16T03:40:39.851Z,96342.69
2019-03-16T03:43:36.554Z,96342.28
2019-03-16T03:46:33.130Z,96358.73
2019-03-16T03:49:29.535Z,96360.00
2019-03-16T03:52:26.318Z,96358.73
2019-03-16T03:55:23.967Z,96381.55
2019-03-16T03:58:20.343Z,96381.16
2019-03-16T04:01:17.674Z,96373.11
2019-03-16T04:04:15.728Z,96382.38
2019-03-16T04:07:09.794Z,96384.05
2019-03-16T04:10:04.755Z,96376.45
2019-03-16T04:13:01.196Z,96389.95
2019-03-16T04:15:56.989Z,96389.95
2019-03-16T04:18:52.175Z,96408.48
2019-03-16T04:21:49.770Z,96389.95
2019-03-16T04:24:45.726Z,96413.15
2019-03-16T04:27:41.832Z,96411.43
2019-03-16T04:30:38.363Z,96408.48
2019-03-16T04:33:36.173Z,96402.16
2019-03-16T04:36:31.616Z,96416.07
2019-03-16T04:39:29.096Z,96404.28
2019-03-16T04:42:25.518Z,96403.44
2019-03-16T04:45:22.428Z,96408.95
2019-03-16T04:48:20.238Z,96413.15
2019-03-16T04:51:17.014Z,96412.73
2019-03-16T04:54:13.601Z,96413.59
2019-03-16T04:57:10.356Z,96412.75
2019-03-16T05:00:07.142Z,96416.14
2019-03-16T05:03:02.731Z,96418.67
2019-03-16T05:05:59.364Z,96421.20
2019-03-16T05:08:56.106Z,96418.27
2019-03-16T05:11:53.888Z,96421.20
2019-03-16T05:14:49.828Z,96427.11
2019-03-16T05:17:45.544Z,96415.28
2019-03-16T05:20:42.200Z,96434.72
2019-03-16T05:23:37.660Z,96432.20
2019-03-16T05:26:34.196Z,96430.53
2019-03-16T05:29:29.899Z,96445.72
2019-03-16T05:32:28.425Z,96438.53
2019-03-16T05:35:24.118Z,96435.59
2019-03-16T05:38:19.993Z,96445.77
2019-03-16T05:41:16.713Z,96452.09
2019-03-16T05:44:12.297Z,96465.16
2019-03-16T05:47:08.844Z,96455.05
2019-03-16T05:50:04.566Z,96460.16
2019-03-16T05:53:00.998Z,96461.83
2019-03-16T05:55:57.838Z,96455.95
2019-03-16T05:58:55.327Z,96465.22
2019-03-16T06:01:51.239Z,96466.90
2019-03-16T06:04:47.723Z,96471.19
2019-03-16T06:07:44.593Z,96469.08
2019-03-16T06:10:40.242Z,96468.66
2019-03-16T06:13:37.265Z,96464.86
2019-03-16T06:16:32.612Z,96459.80
2019-03-16T06:19:29.094Z,96462.34
2019-03-16T06:22:25.003Z,96474.59
2019-03-16T06:25:21.371Z,96469.54
2019-03-16T06:28:18.237Z,96483.92
2019-03-16T06:31:13.819Z,96486.06
2019-03-16T06:34:11.592Z,96483.11
2019-03-16T06:37:06.398Z,96478.45
2019-03-16T06:40:03.141Z,96486.50
2019-03-16T06:42:59.823Z,96487.36
2019-03-16T06:45:55.963Z,96490.35
2019-03-16T06:48:51.092Z,96491.62
2019-03-16T06:51:47.987Z,96489.95
2019-03-16T06:54:44.695Z,96517.00
2019-03-16T06:57:41.400Z,96506.45
2019-03-16T07:00:39.264Z,96506.91
2019-03-16T07:03:35.872Z,96508.63
2019-03-16T07:06:31.527Z,96506.95
2019-03-16T07:09:26.115Z,96526.37
2019-03-16T07:12:23.313Z,96520.06
2019-03-16T07:15:18.856Z,96519.63
2019-03-16T07:18:15.709Z,96528.95
2019-03-16T07:21:13.607Z,96523.47
2019-03-16T07:24:10.393Z,96523.06
2019-03-16T07:27:07.183Z,96531.53
2019-03-16T07:30:02.649Z,96529.88
2019-03-16T07:33:00.739Z,96531.56
2019-03-16T07:35:57.058Z,96536.67
2019-03-16T07:38:53.596Z,96530.73
2019-03-16T07:41:49.035Z,96550.62
2019-03-16T07:44:46.597Z,96537.55
2019-03-16T07:47:42.432Z,96549.38
2019-03-16T07:50:39.023Z,96551.95
2019-03-16T07:53:34.686Z,96554.48
2019-03-16T07:56:29.258Z,96540.97
2019-03-16T07:59:26.010Z,96549.44
2019-03-16T08:02:21.816Z,96555.39
2019-03-16T08:05:19.436Z,96543.11
2019-03-16T08:08:15.415Z,96544.41
2019-03-16T08:11:11.050Z,96545.67
2019-03-16T08:14:08.670Z,96551.16
2019-03-16T08:17:04.142Z,96553.28
2019-03-16T08:20:00.860Z,96564.73
2019-03-16T08:22:56.638Z,96559.66
2019-03-16T08:25:53.205Z,96559.66
2019-03-16T08:28:49.065Z,96557.99
2019-03-16T08:31:45.662Z,96557.97
2019-03-16T08:34:43.507Z,96545.70
2019-03-16T08:37:39.281Z,96557.13
2019-03-16T08:40:35.407Z,96566.02
2019-03-16T08:43:31.015Z,96552.04
2019-03-16T08:46:26.776Z,96566.43
2019-03-16T08:49:22.608Z,96567.28
2019-03-16T08:52:19.150Z,96575.77
2019-03-16T08:55:17.203Z,96576.17
2019-03-16T08:58:15.188Z,96568.14
2019-03-16T09:01:11.799Z,96583.38
2019-03-16T09:04:09.139Z,96579.16
2019-03-16T09:07:05.798Z,96579.97
2019-03-16T09:10:01.396Z,96577.89
2019-03-16T09:12:57.568Z,96591.84
2019-03-16T09:15:55.339Z,96596.95
2019-03-16T09:18:50.848Z,96588.45
2019-03-16T09:21:47.211Z,96598.61
2019-03-16T09:24:44.993Z,96608.80
2019-03-16T09:27:41.166Z,96606.25
2019-03-16T09:30:36.825Z,96610.05
2019-03-16T09:33:33.360Z,96621.48
2019-03-16T09:36:27.972Z,96610.47
2019-03-16T09:39:24.575Z,96622.34
2019-03-16T09:42:21.416Z,96604.55
2019-03-16T09:45:18.059Z,96604.55
2019-03-16T09:48:14.764Z,96616.83
2019-03-16T09:51:10.235Z,96606.25
2019-03-16T09:54:06.779Z,96615.55
2019-03-16T09:57:01.957Z,96614.71
2019-03-16T09:59:58.237Z,96596.10
2019-03-16T10:02:54.781Z,96613.02
2019-03-16T10:05:52.603Z,96596.10
2019-03-16T10:08:49.346Z,96604.55
2019-03-16T10:11:44.900Z,96607.95
2019-03-16T10:14:41.423Z,96607.94
2019-03-16T10:17:37.043Z,96607.94
2019-03-16T10:20:33.550Z,96609.64
2019-03-16T10:23:30.235Z,96608.78
2019-03-16T10:26:28.034Z,96601.19
2019-03-16T10:29:25.532Z,96593.99
2019-03-16T10:32:21.281Z,96590.19
2019-03-16T10:35:17.955Z,96581.73
2019-03-16T10:38:15.388Z,96585.96
2019-03-16T10:41:11.769Z,96585.10
2019-03-16T10:44:07.485Z,96584.22
2019-03-16T10:47:04.743Z,96581.67
2019-03-16T10:50:01.152Z,96571.50
2019-03-16T10:52:56.771Z,96569.80
2019-03-16T10:55:54.315Z,96557.09
2019-03-16T10:58:56.500Z,96571.52
2019-03-16T11:01:46.764Z,96577.81
2019-03-16T11:04:43.045Z,96577.81
2019-03-16T11:07:40.819Z,96577.81
2019-03-16T11:10:35.669Z,96572.77
2019-03-16T11:13:31.754Z,96573.17
2019-03-16T11:16:28.269Z,96568.93
2019-03-16T11:19:24.016Z,96567.62
2019-03-16T11:22:20.809Z,96577.39
2019-03-16T11:25:17.286Z,96568.45
2019-03-16T11:28:14.034Z,96572.70
2019-03-16T11:31:09.696Z,96577.38
2019-03-16T11:34:05.816Z,96565.08
2019-03-16T11:37:01.899Z,96571.45
2019-03-16T11:39:58.090Z,96568.45
2019-03-16T11:42:53.637Z,96570.53
2019-03-16T11:45:50.451Z,96561.92
2019-03-16T11:48:47.033Z,96566.52
2019-03-16T11:51:43.772Z,96575.00
2019-03-16T11:54:39.753Z,96579.67
2019-03-16T11:57:36.003Z,96582.23
2019-03-16T12:00:32.035Z,96572.94
2019-03-16T12:03:27.821Z,96576.38
2019-03-16T12:06:24.331Z,96582.34
2019-03-16T12:09:22.326Z,96584.92
2019-03-16T12:12:18.904Z,96577.31
2019-03-16T12:15:14.360Z,96573.86
2019-03-16T12:18:12.023Z,96564.45
2019-03-16T12:21:09.849Z,96555.06
2019-03-16T12:24:05.510Z,96557.53
2019-03-16T12:27:02.903Z,96552.41
2019-03-16T12:29:58.331Z,96550.30
2019-03-16T12:32:54.892Z,96541.78
2019-03-16T12:35:52.587Z,96536.20
2019-03-16T12:38:49.173Z,96526.77
2019-03-16T12:41:45.775Z,96523.23
2019-03-16T12:44:41.195Z,96512.16
2019-03-16T12:47:38.499Z,96513.19
2019-03-16T12:50:34.280Z,96510.81
2019-03-16T12:53:30.900Z,96506.66
2019-03-16T12:56:26.289Z,96507.58
2019-03-16T12:59:22.384Z,96508.79
2019-03-16T13:02:18.973Z,96507.52
2019-03-16T13:05:14.443Z,96506.45
2019-03-16T13:08:10.997Z,96488.36
2019-03-16T13:11:07.563Z,96495.73
2019-03-16T13:14:03.282Z,96481.18
2019-03-16T13:16:59.139Z,96466.75
2019-03-16T13:19:55.851Z,96464.06
2019-03-16T13:22:51.554Z,96463.78
2019-03-16T13:25:49.288Z,96461.09
2019-03-16T13:28:46.875Z,96459.84
2019-03-16T13:31:42.189Z,96447.20
2019-03-16T13:34:38.695Z,96449.58
2019-03-16T13:37:33.506Z,96450.94
2019-03-16T13:40:30.034Z,96442.04
2019-03-16T13:43:25.575Z,96444.67
2019-03-16T13:46:23.350Z,96438.76
2019-03-16T13:49:20.102Z,96437.09
2019-03-16T13:52:16.821Z,96432.00
2019-03-16T13:55:13.598Z,96426.55
2019-03-16T13:58:09.231Z,96416.79
2019-03-16T14:01:05.385Z,96422.12
2019-03-16T14:04:03.051Z,96420.63
2019-03-16T14:06:57.574Z,96400.23
2019-03-16T14:09:53.316Z,96400.23
2019-03-16T14:12:49.863Z,96405.03
2019-03-16T14:15:46.423Z,96399.48
2019-03-16T14:18:43.066Z,96400.23
2019-03-16T14:21:39.943Z,96398.52
2019-03-16T14:24:35.733Z,96392.66
2019-03-16T14:27:32.385Z,96386.64
2019-03-16T14:30:40.488Z,96385.74
2019-03-16T14:33:24.521Z,96378.78
2019-03-16T14:36:21.097Z,96384.48
2019-03-16T14:39:17.503Z,96383.02
2019-03-16T14:42:14.496Z,96363.59
2019-03-16T14:45:09.394Z,96371.11
2019-03-16T14:48:05.758Z,96366.06
2019-03-16T14:51:05.780Z,96361.93
2019-03-16T14:54:03.799Z,96363.84
2019-03-16T14:57:02.115Z,96364.05
2019-03-16T14:59:59.416Z,96366.60
2019-03-16T15:02:54.343Z,96354.61
2019-03-16T15:05:50.213Z,96352.97
2019-03-16T15:08:46.870Z,96351.63
2019-03-16T15:11:43.604Z,96348.48
2019-03-16T15:14:39.415Z,96344.58
2019-03-16T15:17:36.033Z,96340.31
2019-03-16T15:20:33.704Z,96336.16
2019-03-16T15:23:30.728Z,96332.86
2019-03-16T15:26:26.543Z,96326.30
2019-03-16T15:29:23.380Z,96325.59
2019-03-16T15:32:20.185Z,96313.80
2019-03-16T15:35:16.812Z,96318.48
2019-03-16T15:38:12.861Z,96313.11
2019-03-16T15:41:09.431Z,96314.05
2019-03-16T15:44:07.253Z,96310.66
2019-03-16T15:47:03.087Z,96309.26
2019-03-16T15:49:59.920Z,96300.88
2019-03-16T15:52:55.756Z,96308.86
2019-03-16T15:55:52.378Z,96293.58
2019-03-16T15:58:48.019Z,96293.58
2019-03-16T16:01:45.435Z,96294.30
2019-03-16T16:04:42.822Z,96299.53
2019-03-16T16:07:38.632Z,96304.02
2019-03-16T16:10:36.705Z,96300.48
2019-03-16T16:13:32.374Z,96294.70
2019-03-16T16:16:30.170Z,96291.03
2019-03-16T16:19:25.804Z,96291.14
2019-03-16T16:22:22.648Z,96292.56
2019-03-16T16:25:18.264Z,96286.25
2019-03-16T16:28:15.277Z,96283.91
2019-03-16T16:31:16.457Z,96283.91
2019-03-16T16:34:09.150Z,96272.56
2019-03-16T16:37:07.035Z,96274.02
2019-03-16T16:40:02.682Z,96272.03
2019-03-16T16:43:01.497Z,96273.47
2019-03-16T16:45:57.704Z,96271.05
2019-03-16T16:48:58.951Z,96273.27
2019-03-16T16:51:52.385Z,96265.33
2019-03-16T16:54:49.464Z,96267.09
2019-03-16T16:57:45.930Z,96274.39
2019-03-16T17:00:42.556Z,96268.13
2019-03-16T17:03:42.879Z,96262.70
2019-03-16T17:06:39.059Z,96253.88
2019-03-16T17:09:35.766Z,96251.42
2019-03-16T17:12:31.455Z,96253.23
2019-03-16T17:15:28.310Z,96252.03
2019-03-16T17:18:25.242Z,96247.89
2019-03-16T17:21:21.528Z,96247.12
2019-03-16T17:24:17.915Z,96237.47
2019-03-16T17:27:13.224Z,96237.56
2019-03-16T17:30:12.995Z,96231.71
2019-03-16T17:33:06.546Z,96234.34
2019-03-16T17:36:03.159Z,96233.12
2019-03-16T17:38:58.671Z,96233.63
2019-03-16T17:41:56.858Z,96229.84
2019-03-16T17:44:52.777Z,96239.66
2019-03-16T17:47:51.307Z,96238.88
2019-03-16T17:50:47.246Z,96242.30
2019-03-16T17:53:46.850Z,96247.41
